Time;durP1;ratioP1;P1;durP2;ratioP2;P2;SDS_P1;SDS_P2;PMS_P1;PMS_P2;Temp;Humidity;BMP_temperature;BMP_pressure;BME280_temperature;BME280_humidity;BME280_pressure;Samples;Min_cycle;Max_cycle;Signal;HPM_P1;HPM_P2
2021/09/17 00:01:18;;;;;;;7.75;5.00;;;;;;;;;;4428884;32;20423;-55
2021/09/17 00:03:44;;;;;;;11.48;5.87;;;;;;;;;;4429036;32;20275;-56
2021/09/17 00:06:09;;;;;;;8.77;5.55;;;;;;;;;;4418859;32;20237;-55
2021/09/17 00:08:35;;;;;;;9.40;5.32;;;;;;;;;;4422914;32;20327;-57
2021/09/17 00:11:01;;;;;;;8.07;5.12;;;;;;;;;;4417927;32;20251;-57
2021/09/17 00:13:27;;;;;;;7.53;5.15;;;;;;;;;;4416917;32;20280;-56
2021/09/17 00:15:52;;;;;;;9.23;5.35;;;;;;;;;;4417381;32;20668;-56
2021/09/17 00:18:18;;;;;;;9.23;5.78;;;;;;;;;;4421572;32;20313;-56
2021/09/17 00:20:44;;;;;;;7.35;4.93;;;;;;;;;;4432713;32;20244;-56
2021/09/17 00:23:09;;;;;;;10.30;4.80;;;;;;;;;;4432734;32;20302;-56
2021/09/17 00:25:35;;;;;;;11.45;6.18;;;;;;;;;;4432913;32;20299;-56
2021/09/17 00:28:00;;;;;;;8.90;4.85;;;;;;;;;;4421647;32;20731;-57
2021/09/17 00:30:28;;;;;;;10.73;4.90;;;;;;;;;;4417335;32;20236;-57
2021/09/17 00:32:55;;;;;;;7.35;5.45;;;;;;;;;;4423535;32;20232;-57
2021/09/17 00:35:20;;;;;;;13.93;5.68;;;;;;;;;;4417097;32;20331;-57
2021/09/17 00:37:46;;;;;;;9.60;6.20;;;;;;;;;;4422523;32;20636;-57
2021/09/17 00:40:12;;;;;;;15.98;9.02;;;;;;;;;;4421252;32;20259;-56
2021/09/17 00:42:39;;;;;;;14.10;8.90;;;;;;;;;;4432382;32;20288;-58
2021/09/17 00:45:06;;;;;;;10.02;6.28;;;;;;;;;;4432394;32;20256;-56
2021/09/17 00:47:32;;;;;;;13.23;6.55;;;;;;;;;;4432684;32;20268;-57
2021/09/17 00:49:58;;;;;;;8.93;5.15;;;;;;;;;;4432702;32;20417;-56
2021/09/17 00:52:23;;;;;;;7.15;4.97;;;;;;;;;;4432158;32;20716;-56
2021/09/17 00:54:49;;;;;;;9.02;5.70;;;;;;;;;;4432497;32;20404;-56
2021/09/17 00:57:15;;;;;;;9.48;4.35;;;;;;;;;;4431543;32;20240;-56
2021/09/17 00:59:40;;;;;;;7.37;5.22;;;;;;;;;;4432117;32;20308;-55
2021/09/17 01:02:06;;;;;;;9.40;4.57;;;;;;;;;;4431755;32;20212;-56
2021/09/17 01:04:31;;;;;;;8.15;5.00;;;;;;;;;;4425273;32;20229;-56
2021/09/17 01:07:00;;;;;;;15.98;6.05;;;;;;;;;;4418067;32;20234;-57
2021/09/17 01:09:26;;;;;;;7.37;5.18;;;;;;;;;;4399130;32;20229;-56
2021/09/17 01:11:52;;;;;;;11.02;5.20;;;;;;;;;;4432792;32;20213;-55
2021/09/17 01:14:18;;;;;;;8.13;5.12;;;;;;;;;;4418243;32;20255;-55
2021/09/17 01:16:44;;;;;;;11.35;5.55;;;;;;;;;;4432847;32;20237;-55
2021/09/17 01:19:10;;;;;;;9.45;5.03;;;;;;;;;;4432255;32;20375;-56
2021/09/17 01:21:35;;;;;;;8.23;5.00;;;;;;;;;;4432287;32;20224;-54
2021/09/17 01:24:01;;;;;;;9.10;6.22;;;;;;;;;;4420421;32;20356;-54
2021/09/17 01:26:26;;;;;;;9.50;6.43;;;;;;;;;;4417135;32;20603;-55
2021/09/17 01:28:52;;;;;;;9.07;6.10;;;;;;;;;;4428280;32;20283;-56
2021/09/17 01:31:17;;;;;;;11.55;5.75;;;;;;;;;;4430909;32;20311;-55
2021/09/17 01:33:43;;;;;;;22.02;6.87;;;;;;;;;;4421170;32;20268;-56
2021/09/17 01:36:10;;;;;;;13.20;6.32;;;;;;;;;;4416481;32;20312;-56
2021/09/17 01:38:38;;;;;;;9.57;6.30;;;;;;;;;;4422344;32;20244;-57
2021/09/17 01:41:04;;;;;;;16.15;6.65;;;;;;;;;;4425463;32;20433;-56
2021/09/17 01:43:30;;;;;;;9.88;6.85;;;;;;;;;;4430593;32;20337;-55
2021/09/17 01:45:56;;;;;;;17.48;6.72;;;;;;;;;;4426992;32;20668;-55
2021/09/17 01:48:24;;;;;;;15.70;6.15;;;;;;;;;;4434947;32;20319;-56
2021/09/17 01:50:50;;;;;;;11.05;7.00;;;;;;;;;;4435154;32;20233;-55
2021/09/17 01:53:15;;;;;;;9.80;6.53;;;;;;;;;;4412918;32;20343;-55
2021/09/17 01:55:41;;;;;;;13.13;6.60;;;;;;;;;;4419672;32;20229;-54
2021/09/17 01:58:06;;;;;;;16.77;8.00;;;;;;;;;;4426274;32;20326;-54
2021/09/17 02:00:32;;;;;;;10.32;6.68;;;;;;;;;;4418268;32;20269;-54
2021/09/17 02:02:57;;;;;;;19.30;6.45;;;;;;;;;;4419339;32;20292;-54
2021/09/17 02:05:23;;;;;;;9.75;6.53;;;;;;;;;;4419416;32;20302;-55
2021/09/17 02:07:49;;;;;;;11.88;6.32;;;;;;;;;;4419211;32;20715;-56
2021/09/17 02:10:15;;;;;;;8.10;5.35;;;;;;;;;;4428492;32;20282;-55
2021/09/17 02:12:40;;;;;;;12.00;6.30;;;;;;;;;;4434259;32;20716;-55
2021/09/17 02:15:08;;;;;;;7.40;5.65;;;;;;;;;;4434389;32;20275;-55
2021/09/17 02:17:34;;;;;;;12.10;6.90;;;;;;;;;;4433984;32;20256;-55
2021/09/17 02:19:59;;;;;;;10.45;5.53;;;;;;;;;;4430387;32;20670;-55
2021/09/17 02:22:26;;;;;;;8.02;6.18;;;;;;;;;;4426168;32;20728;-56
2021/09/17 02:24:51;;;;;;;10.50;5.55;;;;;;;;;;4429278;32;20255;-55
2021/09/17 02:27:17;;;;;;;11.27;5.93;;;;;;;;;;4430331;32;20229;-55
2021/09/17 02:29:43;;;;;;;15.63;6.45;;;;;;;;;;4434148;32;20293;-55
2021/09/17 02:32:13;;;;;;;11.43;6.07;;;;;;;;;;4432385;32;20289;-56
2021/09/17 02:34:38;;;;;;;21.45;6.28;;;;;;;;;;4419212;32;20261;-54
2021/09/17 02:37:05;;;;;;;9.20;6.68;;;;;;;;;;4418483;32;20688;-55
2021/09/17 02:39:30;;;;;;;8.18;6.20;;;;;;;;;;4423607;32;20687;-56
2021/09/17 02:41:56;;;;;;;10.93;5.85;;;;;;;;;;4419376;32;20210;-56
2021/09/17 02:44:21;;;;;;;11.38;5.65;;;;;;;;;;4433535;32;20283;-57
2021/09/17 02:46:47;;;;;;;13.35;6.20;;;;;;;;;;4432045;32;20248;-57
2021/09/17 02:49:12;;;;;;;9.30;6.18;;;;;;;;;;4433520;32;20309;-56
2021/09/17 02:51:38;;;;;;;10.38;6.45;;;;;;;;;;4433967;32;20284;-56
2021/09/17 02:54:03;;;;;;;17.98;6.60;;;;;;;;;;4433551;32;20337;-56
2021/09/17 02:56:29;;;;;;;16.98;6.12;;;;;;;;;;4420743;32;20292;-56
2021/09/17 02:58:54;;;;;;;10.32;6.78;;;;;;;;;;4403434;32;20296;-57
2021/09/17 03:01:20;;;;;;;11.35;6.60;;;;;;;;;;4421637;32;20648;-57
2021/09/17 03:03:45;;;;;;;7.90;6.55;;;;;;;;;;4433791;32;20292;-56
2021/09/17 03:06:11;;;;;;;8.98;5.62;;;;;;;;;;4431478;32;20240;-56
2021/09/17 03:08:37;;;;;;;10.60;6.57;;;;;;;;;;4432831;32;20300;-56
2021/09/17 03:11:02;;;;;;;16.00;6.12;;;;;;;;;;4418130;32;20260;-56
2021/09/17 03:13:28;;;;;;;9.95;6.18;;;;;;;;;;4419060;32;20271;-57
2021/09/17 03:15:54;;;;;;;11.95;6.20;;;;;;;;;;4433642;32;20248;-56
2021/09/17 03:18:20;;;;;;;16.75;5.65;;;;;;;;;;4432774;32;20276;-57
2021/09/17 03:20:48;;;;;;;15.63;5.93;;;;;;;;;;4418986;32;20229;-57
2021/09/17 03:23:14;;;;;;;11.27;6.85;;;;;;;;;;4433108;32;20245;-57
2021/09/17 03:25:39;;;;;;;13.45;5.75;;;;;;;;;;4432592;32;20291;-56
2021/09/17 03:28:05;;;;;;;14.98;6.95;;;;;;;;;;4432496;32;20287;-57
2021/09/17 03:30:30;;;;;;;15.57;6.25;;;;;;;;;;4433600;32;20229;-56
2021/09/17 03:32:56;;;;;;;19.25;6.50;;;;;;;;;;4429213;32;20262;-56
2021/09/17 03:35:21;;;;;;;8.23;5.12;;;;;;;;;;4431803;32;20321;-56
2021/09/17 03:37:47;;;;;;;14.00;5.82;;;;;;;;;;4427620;32;20356;-55
2021/09/17 03:40:12;;;;;;;9.52;5.68;;;;;;;;;;4429168;32;20321;-55
2021/09/17 03:42:38;;;;;;;21.27;6.32;;;;;;;;;;4426486;32;20295;-55
2021/09/17 03:45:05;;;;;;;12.75;6.00;;;;;;;;;;4432090;32;20258;-55
2021/09/17 03:47:30;;;;;;;16.15;6.28;;;;;;;;;;4432676;32;20225;-56
2021/09/17 03:49:56;;;;;;;14.05;6.40;;;;;;;;;;4433179;32;20695;-55
2021/09/17 03:52:21;;;;;;;19.08;6.40;;;;;;;;;;4432652;32;20292;-55
2021/09/17 03:54:47;;;;;;;16.87;5.55;;;;;;;;;;4422345;32;20217;-55
2021/09/17 03:57:12;;;;;;;19.02;6.12;;;;;;;;;;4418913;32;20248;-55
2021/09/17 03:59:38;;;;;;;11.90;5.37;;;;;;;;;;4432709;32;20260;-55
2021/09/17 04:02:04;;;;;;;12.65;6.05;;;;;;;;;;4423942;32;20333;-55
2021/09/17 04:04:29;;;;;;;15.52;6.32;;;;;;;;;;4421905;32;20338;-57
2021/09/17 04:06:55;;;;;;;15.18;6.10;;;;;;;;;;4431997;32;20209;-55
2021/09/17 04:09:20;;;;;;;15.05;5.75;;;;;;;;;;4421991;32;20253;-56
2021/09/17 04:11:45;;;;;;;16.12;5.22;;;;;;;;;;4432615;32;20248;-56
2021/09/17 04:14:11;;;;;;;16.85;5.35;;;;;;;;;;4406258;32;20225;-55
2021/09/17 04:16:37;;;;;;;21.40;6.53;;;;;;;;;;4422911;32;20242;-55
2021/09/17 04:19:03;;;;;;;27.15;6.25;;;;;;;;;;4432540;32;20284;-55
2021/09/17 04:21:28;;;;;;;14.95;5.85;;;;;;;;;;4432796;32;20205;-54
2021/09/17 04:23:54;;;;;;;13.75;6.40;;;;;;;;;;4410192;32;20723;-54
2021/09/17 04:26:20;;;;;;;10.75;5.82;;;;;;;;;;4417895;32;20224;-55
2021/09/17 04:28:46;;;;;;;16.73;7.35;;;;;;;;;;4428476;32;20280;-57
2021/09/17 04:31:11;;;;;;;16.98;7.22;;;;;;;;;;4431132;32;20215;-56
2021/09/17 04:33:37;;;;;;;16.92;8.07;;;;;;;;;;4416914;32;20789;-56
2021/09/17 04:36:02;;;;;;;19.65;7.47;;;;;;;;;;4417232;32;20458;-55
2021/09/17 04:38:28;;;;;;;18.12;9.68;;;;;;;;;;4420861;32;20351;-55
2021/09/17 04:40:53;;;;;;;34.92;12.30;;;;;;;;;;4424868;32;20524;-55
2021/09/17 04:43:19;;;;;;;19.30;10.73;;;;;;;;;;4425400;32;20288;-55
2021/09/17 04:45:44;;;;;;;22.25;10.45;;;;;;;;;;4418132;32;20236;-55
2021/09/17 04:48:14;;;;;;;28.30;11.43;;;;;;;;;;4432109;32;20344;-55
2021/09/17 04:50:42;;;;;;;24.95;12.45;;;;;;;;;;4426269;32;20317;-56
2021/09/17 04:53:08;;;;;;;32.22;12.68;;;;;;;;;;4423593;32;20666;-56
2021/09/17 04:55:34;;;;;;;32.63;15.40;;;;;;;;;;4430936;32;20313;-56
2021/09/17 04:58:08;;;;;;;25.85;14.80;;;;;;;;;;4430741;32;20702;-57
2021/09/17 05:00:35;;;;;;;31.62;12.70;;;;;;;;;;4430232;32;20216;-55
2021/09/17 05:03:01;;;;;;;25.83;12.00;;;;;;;;;;4429934;32;20633;-56
2021/09/17 05:05:27;;;;;;;38.25;12.98;;;;;;;;;;4430984;32;20252;-54
2021/09/17 05:07:53;;;;;;;29.15;12.60;;;;;;;;;;4424793;32;20704;-54
2021/09/17 05:10:18;;;;;;;21.10;11.10;;;;;;;;;;4426001;32;20331;-53
2021/09/17 05:12:44;;;;;;;21.67;11.25;;;;;;;;;;4429933;32;20317;-57
2021/09/17 05:15:10;;;;;;;16.62;10.18;;;;;;;;;;4418204;32;20913;-55
2021/09/17 05:17:35;;;;;;;25.58;12.43;;;;;;;;;;4415556;32;20660;-55
2021/09/17 05:20:01;;;;;;;21.37;11.95;;;;;;;;;;4416778;32;20228;-54
2021/09/17 05:22:27;;;;;;;24.23;11.88;;;;;;;;;;4418569;32;20872;-55
2021/09/17 05:24:53;;;;;;;24.10;11.45;;;;;;;;;;4426496;32;20773;-54
2021/09/17 05:27:18;;;;;;;28.12;11.30;;;;;;;;;;4433688;32;20842;-56
2021/09/17 05:29:44;;;;;;;20.37;10.82;;;;;;;;;;4434482;32;20245;-53
2021/09/17 05:32:10;;;;;;;28.98;10.65;;;;;;;;;;4426345;32;20737;-54
2021/09/17 05:34:36;;;;;;;33.90;10.18;;;;;;;;;;4418691;32;20241;-54
2021/09/17 05:37:02;;;;;;;21.58;10.27;;;;;;;;;;4419781;32;20675;-55
2021/09/17 05:39:27;;;;;;;15.30;8.18;;;;;;;;;;4409714;32;20237;-55
2021/09/17 05:41:53;;;;;;;18.58;7.72;;;;;;;;;;4418185;32;20546;-55
2021/09/17 05:44:18;;;;;;;24.12;8.90;;;;;;;;;;4422779;32;20333;-56
2021/09/17 05:46:45;;;;;;;21.90;9.13;;;;;;;;;;4419207;32;20202;-60
2021/09/17 05:49:10;;;;;;;19.48;10.23;;;;;;;;;;4432071;32;20721;-55
2021/09/17 05:51:36;;;;;;;16.58;9.77;;;;;;;;;;4426848;32;20229;-55
2021/09/17 05:54:01;;;;;;;19.37;10.25;;;;;;;;;;4430211;32;20209;-55
2021/09/17 05:56:27;;;;;;;28.48;12.20;;;;;;;;;;4434075;32;20711;-55
2021/09/17 05:58:53;;;;;;;34.65;11.48;;;;;;;;;;4424031;32;20283;-55
2021/09/17 06:01:18;;;;;;;18.33;9.52;;;;;;;;;;4440949;32;20727;-56
2021/09/17 06:03:44;;;;;;;34.88;11.52;;;;;;;;;;4423083;32;20318;-57
2021/09/17 06:06:09;;;;;;;22.13;12.88;;;;;;;;;;4427136;32;20344;-55
2021/09/17 06:08:35;;;;;;;25.23;12.60;;;;;;;;;;4416822;32;20900;-58
2021/09/17 06:11:01;;;;;;;18.60;9.70;;;;;;;;;;4415908;32;20259;-58
2021/09/17 06:13:26;;;;;;;20.45;10.35;;;;;;;;;;4415942;32;20300;-55
2021/09/17 06:15:52;;;;;;;16.80;8.65;;;;;;;;;;4414687;32;20581;-55
2021/09/17 06:18:19;;;;;;;10.45;6.35;;;;;;;;;;4440308;32;20616;-55
2021/09/17 06:20:44;;;;;;;14.93;7.30;;;;;;;;;;4419238;32;20244;-55
2021/09/17 06:23:10;;;;;;;15.38;6.80;;;;;;;;;;4425360;32;20874;-57
2021/09/17 06:25:35;;;;;;;15.43;7.00;;;;;;;;;;4417320;32;20257;-55
2021/09/17 06:28:01;;;;;;;15.18;8.13;;;;;;;;;;4417059;32;20376;-55
2021/09/17 06:30:26;;;;;;;12.88;7.65;;;;;;;;;;4417764;32;20661;-54
2021/09/17 06:32:52;;;;;;;19.90;10.38;;;;;;;;;;4417474;32;20360;-55
2021/09/17 06:35:17;;;;;;;20.25;9.98;;;;;;;;;;4417432;32;20756;-55
2021/09/17 06:37:50;;;;;;;25.40;12.13;;;;;;;;;;4431171;32;20751;-55
2021/09/17 06:40:16;;;;;;;26.10;10.48;;;;;;;;;;4429249;32;20252;-53
2021/09/17 06:42:41;;;;;;;22.20;11.57;;;;;;;;;;4432933;32;20354;-55
2021/09/17 06:45:08;;;;;;;24.73;12.23;;;;;;;;;;4427037;32;20280;-55
2021/09/17 06:47:42;;;;;;;26.42;11.80;;;;;;;;;;4420125;32;20768;-56
2021/09/17 06:50:08;;;;;;;30.02;12.18;;;;;;;;;;4420108;32;20580;-55
2021/09/17 06:52:34;;;;;;;41.35;14.65;;;;;;;;;;4417861;32;20414;-56
2021/09/17 06:54:59;;;;;;;32.65;13.48;;;;;;;;;;4422334;32;20350;-56
2021/09/17 06:57:24;;;;;;;33.05;14.07;;;;;;;;;;4420272;32;20341;-55
2021/09/17 06:59:50;;;;;;;29.50;14.10;;;;;;;;;;4430099;32;20307;-56
2021/09/17 07:02:15;;;;;;;25.23;13.13;;;;;;;;;;4422008;32;20198;-55
2021/09/17 07:04:41;;;;;;;20.48;10.07;;;;;;;;;;4420428;32;20256;-55
2021/09/17 07:07:06;;;;;;;34.70;13.10;;;;;;;;;;4423491;32;20323;-55
2021/09/17 07:09:32;;;;;;;24.15;11.50;;;;;;;;;;4426742;32;20236;-55
2021/09/17 07:11:57;;;;;;;29.63;11.30;;;;;;;;;;4419699;32;20651;-55
2021/09/17 07:14:22;;;;;;;22.25;11.12;;;;;;;;;;4419564;32;20716;-55
2021/09/17 07:16:48;;;;;;;18.30;10.02;;;;;;;;;;4425823;32;20315;-55
2021/09/17 07:19:13;;;;;;;25.60;10.30;;;;;;;;;;4427043;32;20258;-55
2021/09/17 07:21:39;;;;;;;18.05;8.48;;;;;;;;;;4428791;32;20276;-56
2021/09/17 07:24:05;;;;;;;23.80;9.70;;;;;;;;;;4418938;32;20330;-55
2021/09/17 07:26:30;;;;;;;14.68;6.47;;;;;;;;;;4425497;32;20248;-55
2021/09/17 07:28:55;;;;;;;13.68;6.43;;;;;;;;;;4424142;32;20295;-56
2021/09/17 07:31:21;;;;;;;15.63;6.15;;;;;;;;;;4432418;32;20252;-56
2021/09/17 07:33:47;;;;;;;17.23;6.47;;;;;;;;;;4416796;32;20299;-55
2021/09/17 07:36:13;;;;;;;9.73;6.00;;;;;;;;;;4419434;32;20224;-55
2021/09/17 07:38:38;;;;;;;12.32;5.87;;;;;;;;;;4430666;32;20322;-56
2021/09/17 07:41:04;;;;;;;20.60;7.32;;;;;;;;;;4417423;32;20364;-55
2021/09/17 07:43:29;;;;;;;8.82;4.45;;;;;;;;;;4424498;32;20261;-55
2021/09/17 07:45:55;;;;;;;15.07;6.25;;;;;;;;;;4422349;32;20427;-55
2021/09/17 07:48:21;;;;;;;10.65;5.93;;;;;;;;;;4426085;32;20314;-55
2021/09/17 07:50:46;;;;;;;13.35;5.97;;;;;;;;;;4420104;32;20766;-55
2021/09/17 07:53:12;;;;;;;15.85;6.65;;;;;;;;;;4419553;32;20924;-55
2021/09/17 07:55:37;;;;;;;12.82;6.93;;;;;;;;;;4418420;32;20421;-55
2021/09/17 07:58:05;;;;;;;11.20;6.53;;;;;;;;;;4424975;32;20349;-55
2021/09/17 08:00:30;;;;;;;11.20;5.68;;;;;;;;;;4421363;32;20256;-55
2021/09/17 08:02:56;;;;;;;22.75;7.55;;;;;;;;;;4428872;32;20590;-57
2021/09/17 08:05:21;;;;;;;15.77;7.15;;;;;;;;;;4429128;32;20214;-56
2021/09/17 08:07:47;;;;;;;10.05;4.80;;;;;;;;;;4421946;32;20348;-55
2021/09/17 08:10:12;;;;;;;14.05;5.47;;;;;;;;;;4419131;32;20225;-55
2021/09/17 08:12:38;;;;;;;15.05;4.90;;;;;;;;;;4429029;32;20288;-55
2021/09/17 08:15:05;;;;;;;15.38;5.78;;;;;;;;;;4423114;32;20268;-55
2021/09/17 08:17:31;;;;;;;22.92;5.03;;;;;;;;;;4421988;32;20255;-55
2021/09/17 08:19:58;;;;;;;15.70;5.62;;;;;;;;;;4418858;32;20523;-55
2021/09/17 08:22:23;;;;;;;14.30;5.45;;;;;;;;;;4415991;32;20264;-55
2021/09/17 08:24:49;;;;;;;13.60;5.30;;;;;;;;;;4430500;32;20330;-55
2021/09/17 08:27:14;;;;;;;23.30;5.87;;;;;;;;;;4420880;32;20217;-55
2021/09/17 08:29:40;;;;;;;13.48;5.55;;;;;;;;;;4413689;32;20780;-56
2021/09/17 08:32:06;;;;;;;13.35;6.05;;;;;;;;;;4420609;32;20370;-55
2021/09/17 08:34:31;;;;;;;16.00;4.85;;;;;;;;;;4430103;32;20672;-54
2021/09/17 08:36:57;;;;;;;18.02;5.65;;;;;;;;;;4422960;32;20333;-55
2021/09/17 08:39:25;;;;;;;14.20;5.32;;;;;;;;;;4418625;32;20392;-55
2021/09/17 08:41:51;;;;;;;13.62;6.05;;;;;;;;;;4418599;32;20294;-55
2021/09/17 08:44:16;;;;;;;17.37;5.10;;;;;;;;;;4424473;32;20225;-55
2021/09/17 08:46:43;;;;;;;14.27;5.90;;;;;;;;;;4430701;32;20603;-55
2021/09/17 08:49:11;;;;;;;10.65;5.65;;;;;;;;;;4425586;32;20661;-54
2021/09/17 08:51:37;;;;;;;12.90;5.68;;;;;;;;;;4427875;32;20653;-55
2021/09/17 08:54:04;;;;;;;13.20;4.75;;;;;;;;;;4422120;32;20237;-55
2021/09/17 08:56:30;;;;;;;14.87;5.87;;;;;;;;;;4423645;32;20238;-55
2021/09/17 08:58:56;;;;;;;14.38;5.55;;;;;;;;;;4429015;32;20659;-55
2021/09/17 09:01:28;;;;;;;10.32;5.70;;;;;;;;;;4429223;32;20212;-55
2021/09/17 09:03:59;;;;;;;19.75;5.12;;;;;;;;;;4416738;32;20287;-55
2021/09/17 09:06:25;;;;;;;17.85;6.20;;;;;;;;;;4430231;32;20248;-55
2021/09/17 09:08:51;;;;;;;17.67;5.55;;;;;;;;;;4417532;32;20771;-55
2021/09/17 09:11:27;;;;;;;13.10;4.45;;;;;;;;;;4423527;32;20262;-55
2021/09/17 09:14:19;;;;;;;11.30;4.70;;;;;;;;;;4425487;32;20498;-55
2021/09/17 09:16:47;;;;;;;12.60;5.93;;;;;;;;;;4424913;32;20783;-55
2021/09/17 09:19:27;;;;;;;23.70;5.15;;;;;;;;;;4424053;32;20251;-54
2021/09/17 09:22:14;;;;;;;16.27;5.72;;;;;;;;;;4424622;32;20644;-54
2021/09/17 09:24:43;;;;;;;15.27;5.75;;;;;;;;;;4431632;32;20362;-55
2021/09/17 09:27:23;;;;;;;15.32;5.68;;;;;;;;;;4426942;32;20341;-55
2021/09/17 09:29:51;;;;;;;12.20;5.70;;;;;;;;;;4419917;32;20271;-55
2021/09/17 09:32:27;;;;;;;22.60;6.75;;;;;;;;;;4419205;32;20217;-55
2021/09/17 09:34:54;;;;;;;10.70;6.00;;;;;;;;;;4422689;32;20324;-55
2021/09/17 09:37:25;;;;;;;20.40;6.37;;;;;;;;;;4417976;32;20384;-56
2021/09/17 09:39:57;;;;;;;17.17;5.72;;;;;;;;;;4431100;32;20290;-55
2021/09/17 09:42:38;;;;;;;13.38;6.50;;;;;;;;;;4424987;32;20230;-54
2021/09/17 09:45:20;;;;;;;14.32;5.70;;;;;;;;;;4423147;32;20538;-54
2021/09/17 09:47:53;;;;;;;11.88;5.70;;;;;;;;;;4427616;32;20204;-55
2021/09/17 09:50:27;;;;;;;15.05;5.53;;;;;;;;;;4418296;32;20318;-55
2021/09/17 09:52:54;;;;;;;15.68;5.95;;;;;;;;;;4427718;32;20236;-55
2021/09/17 09:55:19;;;;;;;16.37;5.43;;;;;;;;;;4422231;32;20279;-56
2021/09/17 09:57:45;;;;;;;15.18;5.07;;;;;;;;;;4418467;32;20276;-57
2021/09/17 10:00:13;;;;;;;16.85;6.53;;;;;;;;;;4420670;32;20264;-58
2021/09/17 10:02:39;;;;;;;18.17;5.78;;;;;;;;;;4426675;32;20213;-57
2021/09/17 10:05:07;;;;;;;22.65;5.47;;;;;;;;;;4425407;32;20220;-56
2021/09/17 10:07:33;;;;;;;14.65;5.22;;;;;;;;;;4425276;32;20664;-55
2021/09/17 10:10:00;;;;;;;22.08;6.22;;;;;;;;;;4426949;32;20248;-55
2021/09/17 10:12:27;;;;;;;26.58;5.35;;;;;;;;;;4421681;32;20745;-55
2021/09/17 10:14:54;;;;;;;16.50;4.65;;;;;;;;;;4425945;32;20753;-55
2021/09/17 10:17:30;;;;;;;20.67;6.07;;;;;;;;;;4417593;32;20695;-56
2021/09/17 10:19:58;;;;;;;11.60;4.80;;;;;;;;;;4415364;32;20254;-55
2021/09/17 10:22:30;;;;;;;12.52;4.43;;;;;;;;;;4430473;32;20259;-56
2021/09/17 10:25:16;;;;;;;15.25;4.15;;;;;;;;;;4424520;32;20224;-56
2021/09/17 10:27:45;;;;;;;15.45;6.03;;;;;;;;;;4419539;32;20667;-56
2021/09/17 10:30:13;;;;;;;15.93;5.03;;;;;;;;;;4417798;32;20792;-55
2021/09/17 10:32:42;;;;;;;14.25;4.72;;;;;;;;;;4418247;32;20312;-56
2021/09/17 10:35:15;;;;;;;16.33;5.40;;;;;;;;;;4421759;32;20646;-55
2021/09/17 10:37:56;;;;;;;21.35;4.60;;;;;;;;;;4422015;32;20204;-55
2021/09/17 10:40:42;;;;;;;18.02;5.75;;;;;;;;;;4418745;32;20245;-56
2021/09/17 10:43:10;;;;;;;19.80;5.43;;;;;;;;;;4419910;32;20320;-56
2021/09/17 10:45:46;;;;;;;13.32;4.35;;;;;;;;;;4419073;32;20564;-55
2021/09/17 10:48:16;;;;;;;36.05;4.50;;;;;;;;;;4429598;32;20212;-56
2021/09/17 10:50:44;;;;;;;11.63;3.87;;;;;;;;;;4428035;32;20229;-56
2021/09/17 10:53:11;;;;;;;17.73;6.00;;;;;;;;;;4418726;32;20312;-56
2021/09/17 10:55:45;;;;;;;23.83;5.00;;;;;;;;;;4430340;32;20233;-56
2021/09/17 10:58:28;;;;;;;15.07;5.00;;;;;;;;;;4423069;32;20869;-56
2021/09/17 11:01:05;;;;;;;29.33;5.72;;;;;;;;;;4425181;32;20220;-56
2021/09/17 11:03:36;;;;;;;22.90;6.15;;;;;;;;;;4421351;32;20277;-56
2021/09/17 11:06:21;;;;;;;14.70;3.72;;;;;;;;;;4415891;32;20623;-56
2021/09/17 11:09:00;;;;;;;28.73;4.90;;;;;;;;;;4424146;32;20578;-57
2021/09/17 11:11:28;;;;;;;15.32;4.40;;;;;;;;;;4421511;32;20255;-56
2021/09/17 11:14:03;;;;;;;28.50;5.75;;;;;;;;;;4429584;32;20467;-56
2021/09/17 11:16:30;;;;;;;33.08;6.40;;;;;;;;;;4421622;32;20232;-56
2021/09/17 11:19:00;;;;;;;20.80;5.18;;;;;;;;;;4426029;32;20689;-56
2021/09/17 11:21:30;;;;;;;18.85;4.95;;;;;;;;;;4422912;32;20623;-60
2021/09/17 11:23:57;;;;;;;20.12;5.28;;;;;;;;;;4427587;32;20297;-55
2021/09/17 11:26:26;;;;;;;22.95;5.60;;;;;;;;;;4427142;32;20753;-55
2021/09/17 11:29:05;;;;;;;21.42;4.62;;;;;;;;;;4415319;32;20752;-55
2021/09/17 11:31:34;;;;;;;17.00;4.60;;;;;;;;;;4428149;32;20618;-54
2021/09/17 11:34:02;;;;;;;24.33;4.25;;;;;;;;;;4430013;32;20311;-55
2021/09/17 11:36:42;;;;;;;18.42;4.65;;;;;;;;;;4421630;32;20239;-55
2021/09/17 11:39:11;;;;;;;24.70;4.10;;;;;;;;;;4425487;32;20319;-55
2021/09/17 11:41:40;;;;;;;27.37;5.37;;;;;;;;;;4417287;32;20237;-55
2021/09/17 11:44:06;;;;;;;23.80;5.70;;;;;;;;;;4425766;32;20316;-55
2021/09/17 11:46:32;;;;;;;15.93;4.75;;;;;;;;;;4431634;32;20229;-55
2021/09/17 11:48:58;;;;;;;21.52;4.28;;;;;;;;;;4425569;32;20299;-56
2021/09/17 11:51:23;;;;;;;25.98;5.60;;;;;;;;;;4430595;32;20302;-57
2021/09/17 11:53:49;;;;;;;18.60;4.28;;;;;;;;;;4415869;32;20327;-56
2021/09/17 11:56:15;;;;;;;16.58;4.85;;;;;;;;;;4416314;32;20275;-55
2021/09/17 11:58:47;;;;;;;25.55;4.18;;;;;;;;;;4416722;32;20280;-56
2021/09/17 12:01:23;;;;;;;18.20;4.25;;;;;;;;;;4422641;32;20265;-56
2021/09/17 12:03:51;;;;;;;29.02;4.12;;;;;;;;;;4431150;32;20263;-57
2021/09/17 12:06:17;;;;;;;18.05;4.47;;;;;;;;;;4419783;32;20319;-56
2021/09/17 12:08:43;;;;;;;15.23;4.45;;;;;;;;;;4422227;32;20257;-56
2021/09/17 12:11:09;;;;;;;22.75;4.50;;;;;;;;;;4423396;32;20375;-56
2021/09/17 12:13:34;;;;;;;21.42;5.18;;;;;;;;;;4425448;32;20319;-57
2021/09/17 12:16:06;;;;;;;18.42;4.32;;;;;;;;;;4405302;32;20260;-56
2021/09/17 12:18:32;;;;;;;13.62;5.18;;;;;;;;;;4427322;32;20225;-56
2021/09/17 12:21:03;;;;;;;14.23;4.78;;;;;;;;;;4422322;32;20705;-56
2021/09/17 12:23:31;;;;;;;18.58;4.55;;;;;;;;;;4426977;32;20428;-56
2021/09/17 12:26:10;;;;;;;20.27;4.68;;;;;;;;;;4419118;32;20257;-56
2021/09/17 12:28:35;;;;;;;16.98;4.78;;;;;;;;;;4429539;32;20725;-55
2021/09/17 12:31:02;;;;;;;17.55;3.55;;;;;;;;;;4427557;32;20363;-56
2021/09/17 12:33:32;;;;;;;19.75;4.62;;;;;;;;;;4421564;32;20319;-56
2021/09/17 12:36:13;;;;;;;36.13;5.62;;;;;;;;;;4415128;32;20232;-55
2021/09/17 12:38:39;;;;;;;13.35;4.53;;;;;;;;;;4422206;32;20707;-55
2021/09/17 12:41:12;;;;;;;20.75;5.18;;;;;;;;;;4431226;32;20316;-55
2021/09/17 12:43:39;;;;;;;12.57;3.85;;;;;;;;;;4430872;32;20268;-55
2021/09/17 12:46:13;;;;;;;21.12;5.57;;;;;;;;;;4426209;32;20306;-55
2021/09/17 12:48:45;;;;;;;21.90;5.47;;;;;;;;;;4424491;32;20235;-55
2021/09/17 12:51:27;;;;;;;16.58;3.72;;;;;;;;;;4427229;32;20712;-55
2021/09/17 12:53:57;;;;;;;15.68;3.67;;;;;;;;;;4422743;32;20221;-56
2021/09/17 12:56:23;;;;;;;9.75;3.70;;;;;;;;;;4428682;32;20363;-55
2021/09/17 12:59:09;;;;;;;11.48;3.95;;;;;;;;;;4422660;32;20605;-55
2021/09/17 13:01:35;;;;;;;25.10;5.20;;;;;;;;;;4420767;32;20362;-55
2021/09/17 13:04:00;;;;;;;28.12;6.60;;;;;;;;;;4423024;32;20296;-56
2021/09/17 13:06:26;;;;;;;16.08;3.67;;;;;;;;;;4427910;32;20707;-56
2021/09/17 13:08:51;;;;;;;10.90;5.07;;;;;;;;;;4423078;32;20247;-56
2021/09/17 13:11:17;;;;;;;14.05;3.70;;;;;;;;;;4409062;32;20264;-55
2021/09/17 13:13:42;;;;;;;15.57;4.05;;;;;;;;;;4426825;32;20381;-55
2021/09/17 13:16:08;;;;;;;16.10;4.25;;;;;;;;;;4418527;32;20306;-55
2021/09/17 13:18:33;;;;;;;18.02;3.95;;;;;;;;;;4426764;32;20645;-56
2021/09/17 13:20:59;;;;;;;9.90;3.95;;;;;;;;;;4431629;32;20656;-55
2021/09/17 13:23:24;;;;;;;24.05;4.82;;;;;;;;;;4421208;32;20560;-56
2021/09/17 13:25:50;;;;;;;13.95;4.47;;;;;;;;;;4427004;32;20263;-56
2021/09/17 13:28:16;;;;;;;27.17;5.60;;;;;;;;;;4420511;32;20275;-56
2021/09/17 13:30:43;;;;;;;20.95;4.90;;;;;;;;;;4422048;32;20721;-56
2021/09/17 13:33:10;;;;;;;20.05;4.07;;;;;;;;;;4430057;32;20244;-56
2021/09/17 13:35:39;;;;;;;23.62;4.55;;;;;;;;;;4420007;32;20232;-56
2021/09/17 13:38:04;;;;;;;22.60;4.53;;;;;;;;;;4425487;32;20399;-57
2021/09/17 13:40:31;;;;;;;17.35;4.00;;;;;;;;;;4427003;32;20241;-57
2021/09/17 13:42:57;;;;;;;23.77;6.97;;;;;;;;;;4426067;32;20310;-58
2021/09/17 13:45:25;;;;;;;20.40;3.62;;;;;;;;;;4419733;32;20257;-57
2021/09/17 13:47:51;;;;;;;13.40;4.25;;;;;;;;;;4415945;32;20261;-57
2021/09/17 13:50:25;;;;;;;20.77;5.53;;;;;;;;;;4430376;32;20225;-57
2021/09/17 13:52:59;;;;;;;11.30;3.90;;;;;;;;;;4425259;32;20240;-57
2021/09/17 13:55:31;;;;;;;16.12;3.78;;;;;;;;;;4430590;32;20273;-57
2021/09/17 13:57:58;;;;;;;14.93;4.18;;;;;;;;;;4420740;32;20266;-57
2021/09/17 14:00:28;;;;;;;21.52;4.00;;;;;;;;;;4433904;32;20260;-57
2021/09/17 14:02:56;;;;;;;25.35;4.20;;;;;;;;;;4411440;32;20364;-57
2021/09/17 14:05:21;;;;;;;13.62;4.97;;;;;;;;;;4423833;32;20248;-57
2021/09/17 14:07:47;;;;;;;13.95;3.87;;;;;;;;;;4429302;32;20344;-57
2021/09/17 14:10:12;;;;;;;18.87;4.57;;;;;;;;;;4425721;32;20229;-57
2021/09/17 14:12:38;;;;;;;22.77;5.20;;;;;;;;;;4424020;32;20311;-57
2021/09/17 14:15:04;;;;;;;16.52;3.60;;;;;;;;;;4421397;32;20677;-57
2021/09/17 14:17:30;;;;;;;19.00;4.37;;;;;;;;;;4429688;32;20796;-56
2021/09/17 14:19:55;;;;;;;24.67;4.62;;;;;;;;;;4429299;32;20232;-55
2021/09/17 14:22:21;;;;;;;14.25;3.72;;;;;;;;;;4420879;32;20593;-55
2021/09/17 14:24:46;;;;;;;12.57;3.45;;;;;;;;;;4427364;32;20225;-55
2021/09/17 14:27:12;;;;;;;14.20;4.68;;;;;;;;;;4427016;32;20348;-55
2021/09/17 14:29:38;;;;;;;19.83;4.47;;;;;;;;;;4428888;32;20718;-55